createdAt,value
2022-11-25T00:00:37.710Z,6.54
2022-11-25T00:04:39.281Z,6.53
2022-11-25T00:08:42.387Z,6.50
2022-11-25T00:12:43.914Z,6.46
2022-11-25T00:16:48.617Z,6.43
2022-11-25T00:20:50.497Z,6.42
2022-11-25T00:24:52.054Z,6.40
2022-11-25T00:28:54.126Z,6.39
2022-11-25T00:32:55.666Z,6.36
2022-11-25T00:36:57.179Z,6.36
2022-11-25T00:41:17.505Z,6.35
2022-11-25T00:45:19.076Z,6.32
2022-11-25T00:49:20.645Z,6.28
2022-11-25T00:53:22.184Z,6.27
2022-11-25T00:57:23.904Z,6.27
2022-11-25T01:01:26.830Z,6.25
2022-11-25T01:05:28.388Z,6.25
2022-11-25T01:09:30.929Z,6.21
2022-11-25T01:13:33.212Z,6.20
2022-11-25T01:17:34.770Z,6.21
2022-11-25T01:21:36.374Z,6.24
2022-11-25T01:25:39.165Z,6.27
2022-11-25T01:29:42.894Z,6.32
2022-11-25T01:33:45.371Z,6.32
2022-11-25T01:37:47.002Z,6.30
2022-11-25T01:41:49.193Z,6.25
2022-11-25T01:45:50.905Z,6.24
2022-11-25T01:50:10.789Z,6.24
2022-11-25T01:54:15.634Z,6.24
2022-11-25T01:58:35.633Z,6.25
2022-11-25T02:02:37.189Z,6.28
2022-11-25T02:06:54.137Z,6.28
2022-11-25T02:10:57.541Z,6.30
2022-11-25T02:14:59.725Z,6.32
2022-11-25T02:19:03.526Z,6.35
2022-11-25T02:23:29.680Z,6.36
2022-11-25T02:27:34.132Z,6.36
2022-11-25T02:31:35.817Z,6.38
2022-11-25T02:35:40.357Z,6.35
2022-11-25T02:39:42.305Z,6.32
2022-11-25T02:43:44.573Z,6.27
2022-11-25T02:47:46.202Z,6.27
2022-11-25T02:51:47.806Z,6.25
2022-11-25T02:55:52.438Z,6.24
2022-11-25T02:59:54.027Z,6.21
2022-11-25T03:03:55.716Z,6.24
2022-11-25T03:07:57.376Z,6.20
2022-11-25T03:12:18.250Z,6.19
2022-11-25T03:16:20.192Z,6.21
2022-11-25T03:20:21.808Z,6.24
2022-11-25T03:24:23.434Z,6.25
2022-11-25T03:28:25.109Z,6.28
2022-11-25T03:32:27.743Z,6.33
2022-11-25T03:36:29.943Z,6.27
2022-11-25T03:40:31.509Z,6.28
2022-11-25T03:44:34.028Z,6.28
2022-11-25T03:48:36.440Z,6.30
2022-11-25T03:52:38.720Z,6.30
2022-11-25T03:56:41.327Z,6.30
2022-11-25T04:00:42.903Z,6.35
2022-11-25T04:04:44.474Z,6.36
2022-11-25T04:08:46.585Z,6.39
2022-11-25T04:12:48.750Z,6.40
2022-11-25T04:16:54.690Z,6.42
2022-11-25T04:20:56.506Z,6.42
2022-11-25T04:24:58.141Z,6.43
2022-11-25T04:29:01.347Z,6.50
2022-11-25T04:33:03.161Z,6.53
2022-11-25T04:37:04.898Z,6.54
2022-11-25T04:41:06.791Z,6.53
2022-11-25T04:45:25.167Z,6.54
2022-11-25T04:49:29.497Z,6.53
2022-11-25T04:53:31.137Z,6.48
2022-11-25T04:57:32.979Z,6.42
2022-11-25T05:01:34.854Z,6.35
2022-11-25T05:05:59.529Z,6.32
2022-11-25T05:10:02.087Z,6.30
2022-11-25T05:14:16.776Z,6.36
2022-11-25T05:18:19.035Z,6.40
2022-11-25T05:22:26.573Z,6.45
2022-11-25T05:26:28.086Z,6.50
2022-11-25T05:30:32.810Z,6.53
2022-11-25T05:34:35.138Z,6.54
2022-11-25T05:38:37.586Z,6.55
2022-11-25T05:42:39.365Z,6.55
2022-11-25T05:46:49.063Z,6.58
2022-11-25T05:50:51.450Z,6.55
2022-11-25T05:54:57.570Z,6.54
2022-11-25T05:59:00.488Z,6.55
2022-11-25T06:03:14.891Z,6.53
2022-11-25T06:07:16.819Z,6.55
2022-11-25T06:11:19.249Z,6.58
2022-11-25T06:15:21.254Z,6.60
2022-11-25T06:19:24.473Z,6.61
2022-11-25T06:23:26.549Z,6.58
2022-11-25T06:27:43.960Z,6.55
2022-11-25T06:31:50.525Z,6.54
2022-11-25T06:36:07.325Z,6.54
2022-11-25T06:40:09.236Z,6.54
2022-11-25T06:44:10.879Z,6.53
2022-11-25T06:48:12.431Z,6.53
2022-11-25T06:52:14.030Z,6.55
2022-11-25T06:56:24.980Z,6.55
2022-11-25T07:00:26.633Z,6.54
2022-11-25T07:04:28.365Z,6.51
2022-11-25T07:08:33.926Z,6.48
2022-11-25T07:12:36.077Z,6.51
2022-11-25T07:16:39.692Z,6.53
2022-11-25T07:20:41.276Z,6.48
2022-11-25T07:24:42.824Z,6.45
2022-11-25T07:28:44.927Z,6.43
2022-11-25T07:32:46.502Z,6.42
2022-11-25T07:36:49.884Z,6.43
2022-11-25T07:40:51.414Z,6.46
2022-11-25T07:44:52.929Z,6.50
2022-11-25T07:49:26.811Z,6.53
2022-11-25T07:53:28.353Z,6.54
2022-11-25T07:57:29.855Z,6.57
2022-11-25T08:01:31.381Z,6.58
2022-11-25T08:05:33.886Z,6.63
2022-11-25T08:09:35.875Z,6.65
2022-11-25T08:13:38.242Z,6.69
2022-11-25T08:17:39.772Z,6.72
2022-11-25T08:21:42.087Z,6.78
2022-11-25T08:25:50.114Z,6.81
2022-11-25T08:29:52.068Z,6.89
2022-11-25T08:33:54.950Z,6.97
2022-11-25T08:37:56.515Z,7.05
2022-11-25T08:41:58.054Z,7.11
2022-11-25T08:45:59.689Z,7.15
2022-11-25T08:50:01.357Z,7.16
2022-11-25T08:54:04.334Z,7.18
2022-11-25T08:58:10.029Z,7.24
2022-11-25T09:02:14.633Z,7.26
2022-11-25T09:06:17.564Z,7.32
2022-11-25T09:10:19.111Z,7.37
2022-11-25T09:14:20.677Z,7.44
2022-11-25T09:18:26.113Z,7.54
2022-11-25T09:22:27.654Z,7.58
2022-11-25T09:26:35.477Z,7.66
2022-11-25T09:30:37.259Z,7.70
2022-11-25T09:34:39.181Z,7.79
2022-11-25T09:38:44.030Z,7.85
2022-11-25T09:43:21.846Z,7.92
2022-11-25T09:47:34.013Z,7.99
2022-11-25T09:52:03.767Z,7.96
2022-11-25T09:56:14.324Z,7.99
2022-11-25T10:00:20.199Z,8.04
2022-11-25T10:04:27.172Z,8.13
2022-11-25T10:08:34.039Z,8.27
2022-11-25T10:12:42.263Z,8.32
2022-11-25T10:16:56.641Z,8.39
2022-11-25T10:20:58.245Z,8.39
2022-11-25T10:25:16.590Z,8.42
2022-11-25T10:29:27.446Z,8.45
2022-11-25T10:33:44.908Z,8.52
2022-11-25T10:37:48.923Z,8.58
2022-11-25T10:42:04.795Z,8.64
2022-11-25T10:46:22.096Z,8.67
2022-11-25T10:50:37.461Z,8.70
2022-11-25T10:54:41.224Z,8.68
2022-11-25T10:58:43.046Z,8.73
2022-11-25T11:02:48.366Z,8.78
2022-11-25T11:06:51.114Z,8.80
2022-11-25T11:11:12.802Z,8.88
2022-11-25T11:15:44.825Z,8.93
2022-11-25T11:20:13.076Z,8.94
2022-11-25T11:24:31.994Z,9.00
2022-11-25T11:28:36.950Z,9.00
2022-11-25T11:32:42.327Z,9.00
2022-11-25T11:36:57.534Z,8.96
2022-11-25T11:41:26.851Z,9.00
2022-11-25T11:45:51.900Z,9.08
2022-11-25T11:50:18.531Z,9.16
2022-11-25T11:54:28.890Z,9.19
2022-11-25T11:58:58.488Z,9.24
2022-11-25T12:03:21.936Z,9.35
2022-11-25T12:07:26.402Z,9.41
2022-11-25T12:11:36.832Z,9.45
2022-11-25T12:16:01.583Z,9.49
2022-11-25T12:20:13.337Z,9.50
2022-11-25T12:24:26.727Z,9.58
2022-11-25T12:28:39.694Z,9.65
2022-11-25T12:32:48.272Z,9.70
2022-11-25T12:37:02.806Z,9.73
2022-11-25T12:41:24.832Z,9.77
2022-11-25T12:45:26.493Z,9.81
2022-11-25T12:49:50.877Z,9.93
2022-11-25T12:53:52.438Z,10.07
2022-11-25T12:57:56.928Z,10.14
2022-11-25T13:02:35.100Z,10.20
2022-11-25T13:07:14.277Z,10.24
2022-11-25T13:11:25.199Z,10.26
2022-11-25T13:15:45.977Z,10.29
2022-11-25T13:19:47.942Z,10.29
2022-11-25T13:23:52.605Z,10.29
2022-11-25T13:27:54.068Z,10.29
2022-11-25T13:32:00.085Z,10.29
2022-11-25T13:36:22.300Z,10.29
2022-11-25T13:40:23.976Z,10.29
2022-11-25T13:44:29.617Z,10.26
2022-11-25T13:48:36.943Z,10.31
2022-11-25T13:52:38.536Z,10.28
2022-11-25T13:56:40.148Z,10.29
2022-11-25T14:00:49.594Z,10.28
2022-11-25T14:05:11.387Z,10.26
2022-11-25T14:09:20.292Z,10.25
2022-11-25T14:13:49.525Z,10.22
2022-11-25T14:18:44.463Z,10.18
2022-11-25T14:23:09.044Z,10.22
2022-11-25T14:27:17.396Z,10.22
2022-11-25T14:31:24.583Z,10.18
2022-11-25T14:35:41.630Z,10.16
2022-11-25T14:40:06.499Z,10.16
2022-11-25T14:44:17.011Z,10.18
2022-11-25T14:48:23.900Z,10.22
2022-11-25T14:52:28.536Z,10.18
2022-11-25T14:56:33.797Z,10.13
2022-11-25T15:00:49.412Z,10.09
2022-11-25T15:04:51.016Z,10.10
2022-11-25T15:08:58.122Z,10.06
2022-11-25T15:13:04.392Z,10.01
2022-11-25T15:17:20.599Z,9.98
2022-11-25T15:21:27.499Z,9.93
2022-11-25T15:25:29.037Z,9.88
2022-11-25T15:29:31.327Z,9.88
2022-11-25T15:33:33.094Z,9.86
2022-11-25T15:37:34.749Z,9.85
2022-11-25T15:41:36.765Z,9.85
2022-11-25T15:45:45.189Z,9.86
2022-11-25T15:49:51.730Z,9.86
2022-11-25T15:53:56.829Z,9.85
2022-11-25T15:58:15.987Z,9.81
2022-11-25T16:02:36.794Z,9.78
2022-11-25T16:06:52.938Z,9.75
2022-11-25T16:10:57.715Z,9.74
2022-11-25T16:14:59.308Z,9.74
2022-11-25T16:19:09.935Z,9.71
2022-11-25T16:23:15.524Z,9.68
2022-11-25T16:27:23.588Z,9.63
2022-11-25T16:31:26.387Z,9.63
2022-11-25T16:35:27.892Z,9.59
2022-11-25T16:39:29.466Z,9.59
2022-11-25T16:43:31.028Z,9.56
2022-11-25T16:47:32.592Z,9.52
2022-11-25T16:51:34.212Z,9.48
2022-11-25T16:55:37.545Z,9.38
2022-11-25T16:59:42.121Z,9.31
2022-11-25T17:03:43.872Z,9.23
2022-11-25T17:07:45.532Z,9.17
2022-11-25T17:11:54.754Z,9.12
2022-11-25T17:15:56.530Z,9.04
2022-11-25T17:19:58.205Z,9.00
2022-11-25T17:24:02.739Z,8.96
2022-11-25T17:28:04.743Z,8.89
2022-11-25T17:32:06.637Z,8.85
2022-11-25T17:36:10.737Z,8.82
2022-11-25T17:40:13.424Z,8.78
2022-11-25T17:44:22.882Z,8.73
2022-11-25T17:48:24.605Z,8.70
2022-11-25T17:52:26.321Z,8.67
2022-11-25T17:56:30.263Z,8.64
2022-11-25T18:00:34.217Z,8.63
2022-11-25T18:04:36.266Z,8.63
2022-11-25T18:08:38.163Z,8.61
2022-11-25T18:12:40.297Z,8.61
2022-11-25T18:16:42.666Z,8.60
2022-11-25T18:20:44.276Z,8.61
2022-11-25T18:24:46.578Z,8.64
2022-11-25T18:28:48.503Z,8.68
2022-11-25T18:32:50.264Z,8.70
2022-11-25T18:36:52.776Z,8.71
2022-11-25T18:40:55.277Z,8.75
2022-11-25T18:44:57.072Z,8.76
2022-11-25T18:48:58.716Z,8.78
2022-11-25T18:53:00.373Z,8.79
2022-11-25T18:57:02.122Z,8.79
2022-11-25T19:01:10.708Z,8.82
2022-11-25T19:05:19.755Z,8.80
2022-11-25T19:09:21.434Z,8.83
2022-11-25T19:13:30.666Z,8.82
2022-11-25T19:17:32.599Z,8.82
2022-11-25T19:21:34.781Z,8.80
2022-11-25T19:25:36.744Z,8.82
2022-11-25T19:29:42.233Z,8.82
2022-11-25T19:33:51.998Z,8.83
2022-11-25T19:37:53.844Z,8.86
2022-11-25T19:41:57.907Z,8.88
2022-11-25T19:45:59.863Z,8.89
2022-11-25T19:50:02.152Z,8.89
2022-11-25T19:54:03.952Z,8.93
2022-11-25T19:58:05.535Z,8.94
2022-11-25T20:02:14.406Z,8.96
2022-11-25T20:06:18.566Z,8.97
2022-11-25T20:10:22.941Z,8.96
2022-11-25T20:14:24.635Z,8.96
2022-11-25T20:18:27.423Z,8.97
2022-11-25T20:22:33.896Z,8.97
2022-11-25T20:26:37.546Z,8.96
2022-11-25T20:30:39.214Z,8.97
2022-11-25T20:34:42.389Z,8.97
2022-11-25T20:38:54.370Z,8.98
2022-11-25T20:42:57.170Z,8.97
2022-11-25T20:46:58.722Z,8.96
2022-11-25T20:51:02.164Z,8.96
2022-11-25T20:55:16.643Z,8.94
2022-11-25T20:59:23.726Z,8.91
2022-11-25T21:03:25.963Z,8.91
2022-11-25T21:07:27.533Z,8.88
2022-11-25T21:11:32.898Z,8.85
2022-11-25T21:15:34.527Z,8.83
2022-11-25T21:19:36.099Z,8.85
2022-11-25T21:23:37.952Z,8.83
2022-11-25T21:27:40.876Z,8.80
2022-11-25T21:31:42.536Z,8.76
2022-11-25T21:35:46.533Z,8.71
2022-11-25T21:39:48.127Z,8.67
2022-11-25T21:43:50.872Z,8.65
2022-11-25T21:47:52.469Z,8.63
2022-11-25T21:51:54.279Z,8.61
2022-11-25T21:55:56.005Z,8.58
2022-11-25T21:59:57.517Z,8.55
2022-11-25T22:03:59.375Z,8.50
2022-11-25T22:08:01.165Z,8.46
2022-11-25T22:12:04.994Z,8.40
2022-11-25T22:16:06.895Z,8.32
2022-11-25T22:20:35.996Z,8.24
2022-11-25T22:24:37.823Z,8.17
2022-11-25T22:28:39.852Z,8.10
2022-11-25T22:32:41.411Z,8.07
2022-11-25T22:36:43.248Z,8.03
2022-11-25T22:40:50.362Z,8.02
2022-11-25T22:44:53.013Z,7.95
2022-11-25T22:48:55.141Z,7.92
2022-11-25T22:52:57.354Z,7.88
2022-11-25T22:56:59.096Z,7.85
2022-11-25T23:01:00.698Z,7.84
2022-11-25T23:05:02.867Z,7.81
2022-11-25T23:09:10.106Z,7.77
2022-11-25T23:13:12.217Z,7.77
2022-11-25T23:17:22.989Z,7.74
2022-11-25T23:21:29.048Z,7.71
2022-11-25T23:25:30.558Z,7.66
2022-11-25T23:29:32.166Z,7.58
2022-11-25T23:33:39.090Z,7.58
2022-11-25T23:37:40.842Z,7.54
2022-11-25T23:41:42.358Z,7.48
2022-11-25T23:45:51.146Z,7.39
2022-11-25T23:50:01.187Z,7.33
2022-11-25T23:54:02.725Z,7.32
2022-11-25T23:58:15.252Z,7.34
